Indianapolis, Iowa
Current Conditions -  °F | °C
As of 5:35 PM on Saturday 20 Dec 2014 (Local Time) from KOOA Reporting Station
Haze Haze  
Wind Chill: 26°   Ceiling: 200
Heat Index: 33°   Visibility: 1mi
Dew Point: 33°   Wind: 8mph
Humidity: 98%   Direction: 130°SE
Pressure: 30.17"   Gusts: NA
Location:  41.3798°N, 92.3541°W
Report Text: KOOA 202335Z AUTO 13007KT 1SM BR OVC002 01/00 A3017 RMK AO2 T00060003
Loading
Personal Weather Stations






























Interactive Weather Map New forecast layout! Learn more

10-Day Weather Forecast

Advertisements
Track Severe Weather on mobile